LDRI/RJK METAR and TAF weather

Enter ICAO airport designator
Station Type Date Time Source
LDRI METAR 2020/07/05 16:30 UTC NOAA

LDRI 051630Z 07010KT CAVOK 31/10 Q1013


Station Type Date Time Source
LDRI Decoded METAR 2020/07/05 16:30 UTC NOAA

Rijeka / Omisalj, Croatia (LDRI) 45-13N 014-35E
Jul 05, 2020 - 12:30 PM EDT / 2020.07.05 1630 UTC
Wind: from the ENE (070 degrees) at 12 MPH (10 KT):0
Visibility: greater than 7 mile(s):0
Temperature: 87 F (31 C)
Dew Point: 50 F (10 C)
Relative Humidity: 27%
Pressure (altimeter): 29.91 in. Hg (1013 hPa)
ob: LDRI 051630Z 07010KT CAVOK 31/10 Q1013
cycle: 16

Station Type Date Time Source
LDRI TAF 2020/07/05 12:27 UTC NOAA

TAF LDRI 051125Z 0512/0612 06007KT CAVOK TX32/0513Z TN22/0603Z PROB40
TEMPO 0512/0515 04012KT
BECMG 0610/0612 30007KT

Example: see airport list